Relevés horaires Bierset (Belgique)


Relevés horaires à Bierset - Samedi 09 Sept. 2023
Heure UTC1 Température [°C] Vent [km/h] Hum. [%] Pres.4 [hPa] Visi. [Km] Nébu. [octa] Préc.5 [mm] Cond.
2m. Res. Ros. Dir.2 Vit. Moy. Raf.3
23:00 23.0 23.0 17.7 SSE 5.6 7.4 9.3 72 1017.6(0.0/3h) 30 0/8 -- --
22:00 24.4 24.4 18.0 SSE 5.6 5.6 7.4 68 1017.5(0.4/3h) 30 0/8 -- --
21:00 24.5 24.5 18.2 SE 5.6 5.6 13.0 68 1017.6(0.7/3h) 30 1/8 -- --
20:00 25.5 25.5 18.1 ESE 5.6 5.6 9.3 64 1017.5(0.9/3h) 30 1/8 -- --
19:00 26.2 26.2 17.8 ESE 3.7 5.6 7.4 60 1017(0.5/3h) 30 1/8 -- --
18:00 27.0 27.0 17.9 E 5.6 5.6 7.4 58 1016.7(0.0/3h) 30 1/8 0/12h
--
17:00 27.9 27.9 17.8 NE 3.7 5.6 7.4 54 1016.4(-0.3/3h) 30 1/8 -- --
16:00 29.3 29.3 18.6 NNE 1.9 3.7 5.6 53 1016.3(-0.6/3h) 30 1/8 -- --
15:00 29.3 29.3 17.7 NNO 1.9 3.7 7.4 50 1016.5(-0.5/3h) 30 1/8 -- --
14:00 28.9 28.9 17.8 NNO 1.9 1.9 5.6 51 1016.6(-0.5/3h) 30 1/8 -- --
13:00 28.7 28.7 17.6 NNO 1.9 3.7 7.4 51 1017(-0.2/3h) 30 1/8 -- --
12:00 28.4 28.4 19.3 NNO 1.9 7.4 14.8 58 1017.1(-0.1/3h) 30 0/8 0/6h
--
11:00 28.0 28.0 18.4 NNO 0.0 3.7 5.6 56 1017.2(0.2/3h) 30 0/8 -- --
10:00 26.8 26.8 18.7 SO 1.9 3.7 11.1 61 1017.3(0.4/3h) 30 0/8 -- --
09:00 25.1 25.1 18.0 S 3.7 7.4 14.8 65 1017.5(0.8/3h) 30 0/8 -- --
08:00 22.0 22.0 16.9 SSE 5.6 5.6 14.8 73 1017.4(0.9/3h) 30 1/8 -- --
07:00 19.3 19.3 16.3 SSE 5.6 7.4 11.1 83 1017.4(0.8/3h) 30 1/8 -- --
06:00 18.5 18.5 15.7 S 3.7 7.4 13.0 84 1017.2(0.5/3h) 30 1/8 0/12h
--
05:00 18.5 18.5 15.4 S 1.9 3.7 5.6 82 1016.8(0.1/3h) 30 1/8 -- --
04:00 19.0 19.0 15.3 S 3.7 3.7 5.6 79 1016.6(-0.1/3h) 30 1/8 -- --
03:00 18.6 18.6 15.7 S 3.7 7.4 13.0 83 1016.7(-0.2/3h) 30 1/8 -- --
02:00 19.9 19.9 16.1 SSO 1.9 5.6 7.4 79 1016.6(-0.3/3h) 30 1/8 -- --
01:00 20.7 20.7 16.5 SSE 3.7 7.4 13.0 77 1016.6(-0.5/3h) 30 1/8 -- --
00:00 21.2 21.2 17.0 SSE 7.4 7.4 14.8 77 1016.7(-0.4/3h) 30 1/8 0/6h
0/24h
--

1 Coordinated Universal Time. Actuellement il est 03:00 locale et 01:00 UTC.

2 Le vent souffle depuis la direction indiquée vers la direction oposée.

3 Les rafales max. sont disponible 40 min après l'heure du relevé.

4 Pour les stations d'altitude (plus de 600m) le géopotentiel du niveau le plus proche de la pression obligatoire est indiqué.

5 Les stations disposant d'un diffuseur peuvent indiquer "trace". Cela signifie que des précipitations ont touchés le sol mais que la quantité est inférieure à 0.1 mm.

Récapitulatif de la journée
Température [°C] Vent [km/h] Ensoleillement4 [h] Precipitations totale5 [mm] Pression [Hpa]
Min1 Max.2 Moy.3 Max. Min Max.
17.7 30.1 5.5 14.8 0 h 0 min 0 1016.3 1017.6

1 Température minimale relevée entre 18:00 UTC la veille et 18:00 UTC le jour donné.

2 Température maximale relevée entre 06:00 UTC le jour donné et 06:00 UTC le lendemain.

3 Vent moyen de la journée basé sur les relevés horaires.

4 Ensoleillement en heures relevé entre 06:00 UTC la veille et 06:00 UTC le jour donné.

5 Précipitations totales tombées entre 06:00 UTC la jour donné et 06:00 UTC le lendemain.

Graphiques horaires